Aérodrome :
LOGIN :

S'inscrire | Disclaimer

   EN    FR    IT 

 










Légende :    VFR   VFR Marginal   IFR   IFR Intensif   IFR Très Intensif
Visi : 
Plafond : 
>= 8 km
>= 3000ft
5 à 8 km
1000 à 3000 ft
1500m à 5 km
500 à 1000 ft
800 à 1500m
200 à 500 ft
< 800m
< 200 ft
Symboles :   Orages  Brouillard  Fortes neiges  Fortes précipitations  Vent > 20 kt
SIGMETs :   Divers  Orages  Givrage  Turbulence  Onde Orograph.  Cendres Volcan.






- Altitude de l'aérodrome : 36 ft
- Code IATA : LTQ


LFAT - Le Touquet

DERNIER METAR :
  • 140830Z AUTO 27014KT 240V310 9999 FEW035 OVC110 10/04 Q0993 TEMPO 27030G50KT 4000 SHRA BKN025TCU

METARs EXPIRÉS :
  • 140800Z AUTO 28018G33KT 250V320 9999 FEW040 BKN110 10/02 Q0993 NOSIG
  • 140730Z AUTO 29020G31KT 260V320 9999 FEW042 09/02 Q0992 NOSIG
  • 140700Z AUTO 29021G34KT 9999 BKN041 BKN050 BKN060 09/01 Q0992 NOSIG
  • 140630Z AUTO 29022G37KT 250V320 9999 FEW037 BKN044 BKN054 09/02 Q0991 NOSIG
  • 140600Z AUTO 29021G32KT 260V330 9999 BKN034 BKN046 BKN058 09/04 Q0990 NOSIG

TAF TAF LFAT
Valide du 14 à 09h jusqu'au 14 à 18h UTC


140800Z 1409/1418 27015KT 9999 BKN040
TEMPO 1409/1413 27030G50KT 4000 SHRA BKN025TCU
TEMPO 1413/1418 25020G30KT
ATIS : +33 3 21 06 62 84



MET'MAP, la Météo Aéronautique d'un coup d'oeil ! - Copyright ORBIFLY Décembre 2007 - Disclaimer

ORBIFLY MET'MAP TEAM :

Programmation & Développement : Alexandra Zaïnal
Sur une idée originale de : Baudouin d'Aumeries
Assistance à la programmation : Marc-Olivier Méhu
Soutien technique & logistique : Manuel Goepfert

Contact : metmap@orbifly.com




SOURCES & CREDITS :

   NOAA